Filia Joy — 3FIN9 — position and weather

sailwx.info

Track history (hours):
 
Tides and Currents Weather Stations Pressure Air Temp Water Temp Dewpoint Dewpoint Depression Visibility Wind Speed Wind Dir Waves Ship Positions

Filia Joy

Last reported at 2014-Dec-11 14:11 UTC. Time now 2014-Dec-20 17:55 UTC.
Position S 28°38' E 032°37'.
Warning: this ship's position is 9 days out of date.

Length 190 m; draft 6.5 m.

Type: Ship. MMSI: 371999000.

Date/timePositionNaut miles runAvg speedWind from/ knotsBaromVisibWave heightAir tempDewpointWater temp
2014-Dec-11 14:11S 28°38' E 032°37'31 8.5
2014-Dec-11 10:31S 28°49' E 032°03'  
2014-Dec-07 03:33S 29°39' E 031°40'5 4.7
2014-Dec-07 02:33S 29°42' E 031°37'0 0.4
2014-Dec-07 01:32S 29°42' E 031°37'0 0.3
2014-Dec-07 00:33S 29°42' E 031°38'0 0.2
2014-Dec-06 23:33S 29°42' E 031°38'6 6.0
2014-Dec-06 22:33S 29°46' E 031°32'7 7.5
2014-Dec-06 21:33S 29°49' E 031°24'8 8.2
2014-Dec-06 20:33S 29°50' E 031°15'7 7.1
2014-Dec-06 19:33S 29°51' E 031°07'5 5.3
2014-Dec-06 18:33S 29°52' E 031°01'0 0.1
2014-Dec-06 16:04S 29°52' E 031°00'0 0.0
2014-Dec-06 15:33S 29°52' E 031°00'0 0.0
2014-Dec-06 12:11S 29°52' E 031°00'0 0.0
2014-Dec-06 11:33S 29°52' E 031°00'0 0.0
2014-Dec-06 10:33S 29°52' E 031°00'0 0.0
2014-Dec-06 09:33S 29°52' E 031°00'0 0.0
2014-Dec-06 08:33S 29°52' E 031°00'0 0.0
2014-Dec-06 07:33S 29°52' E 031°00'0 0.0
2014-Dec-06 06:33S 29°52' E 031°00'0 0.0
2014-Dec-06 05:33S 29°52' E 031°00'0 0.0
2014-Dec-06 04:33S 29°52' E 031°00'0 0.0
2014-Dec-06 03:33S 29°52' E 031°00'0 0.0
2014-Dec-06 02:33S 29°52' E 031°00'0 0.0
2014-Dec-06 01:33S 29°52' E 031°00'0 0.0
2014-Dec-06 00:33S 29°52' E 031°00'0 0.0
2014-Dec-05 23:33S 29°52' E 031°00'0 0.0
2014-Dec-05 22:33S 29°52' E 031°00'0 0.0
2014-Dec-05 21:33S 29°52' E 031°00'0 0.0
2014-Dec-05 20:33S 29°52' E 031°00'0 0.0
2014-Dec-05 19:33S 29°52' E 031°00'0 0.0
2014-Dec-05 18:33S 29°52' E 031°00'0 0.0
2014-Dec-05 17:33S 29°52' E 031°00'0 0.0
2014-Dec-05 16:33S 29°52' E 031°00'0 0.0
2014-Dec-05 15:33S 29°52' E 031°00'0 0.0
2014-Dec-05 14:33S 29°52' E 031°00'0 0.0
2014-Dec-05 12:07S 29°52' E 031°00'0 0.0
2014-Dec-05 11:33S 29°52' E 031°00'0 0.0
2014-Dec-05 10:33S 29°52' E 031°00'0 0.0
2014-Dec-05 09:33S 29°52' E 031°00'0 0.0
2014-Dec-05 08:33S 29°52' E 031°00'0 0.0
2014-Dec-05 07:33S 29°52' E 031°00'0 0.0
2014-Dec-05 06:33S 29°52' E 031°00'0 0.0
2014-Dec-05 05:33S 29°52' E 031°00'0 0.0
2014-Dec-05 04:33S 29°52' E 031°00'0 0.0
2014-Dec-05 03:33S 29°52' E 031°00'0 0.0
2014-Dec-05 02:33S 29°52' E 031°00'0 0.0
2014-Dec-05 01:33S 29°52' E 031°00'0 0.0
2014-Dec-05 00:33S 29°52' E 031°00'0 0.0
2014-Dec-04 23:33S 29°52' E 031°00'0 0.0
2014-Dec-04 22:33S 29°52' E 031°00'0 0.0
2014-Dec-04 21:33S 29°52' E 031°00'0 0.0
2014-Dec-04 20:33S 29°52' E 031°00'0 0.0
2014-Dec-04 19:33S 29°52' E 031°00'0 0.0
2014-Dec-04 18:33S 29°52' E 031°00'0 0.0
2014-Dec-04 17:33S 29°52' E 031°00'0 0.0
2014-Dec-04 16:33S 29°52' E 031°00'0 0.0
2014-Dec-04 15:33S 29°52' E 031°00'0 0.0
2014-Dec-04 14:33S 29°52' E 031°00'0 0.0
2014-Dec-04 13:33S 29°52' E 031°00'0 0.0
2014-Dec-04 12:33S 29°52' E 031°00'0 0.0
2014-Dec-04 11:33S 29°52' E 031°00'0 0.0
2014-Dec-04 10:33S 29°52' E 031°00'0 0.0
2014-Dec-04 09:33S 29°52' E 031°00'0 0.0
2014-Dec-04 08:33S 29°52' E 031°00'0 0.0
2014-Dec-04 07:33S 29°52' E 031°00'0 0.0
2014-Dec-04 06:33S 29°52' E 031°00'0 0.0
2014-Dec-04 05:33S 29°52' E 031°00'0 0.0
2014-Dec-04 04:33S 29°52' E 031°00'0 0.0
2014-Dec-04 03:33S 29°52' E 031°00'0 0.0
2014-Dec-04 02:33S 29°52' E 031°00'0 0.0
2014-Dec-04 01:33S 29°52' E 031°00'0 0.0
2014-Dec-04 00:33S 29°52' E 031°00'0 0.0
2014-Dec-03 23:33S 29°52' E 031°00'0 0.0
2014-Dec-03 22:33S 29°52' E 031°00'0 0.0
2014-Dec-03 21:33S 29°52' E 031°00'0 0.0
2014-Dec-03 20:33S 29°52' E 031°00'0 0.0
2014-Dec-03 19:33S 29°52' E 031°00'0 0.0
2014-Dec-03 18:33S 29°52' E 031°00'0 0.0
2014-Dec-03 17:33S 29°52' E 031°00'0 0.0
2014-Dec-03 16:33S 29°52' E 031°00'0 0.0
2014-Dec-03 15:33S 29°52' E 031°00'0 0.0
2014-Dec-03 14:33S 29°52' E 031°00'0 0.0
2014-Dec-03 13:33S 29°52' E 031°00'0 0.0
2014-Dec-03 12:33S 29°52' E 031°00'0 0.0
2014-Dec-03 11:33S 29°52' E 031°00'0 0.0
2014-Dec-03 10:33S 29°52' E 031°00'0 0.0
2014-Dec-03 09:33S 29°52' E 031°00'0 0.0
2014-Dec-03 08:20S 29°52' E 031°00'0 0.0
2014-Dec-03 07:26S 29°52' E 031°00'0 0.0
2014-Dec-03 06:32S 29°52' E 031°00'0 0.0
2014-Dec-03 05:33S 29°52' E 031°00'0 0.0
2014-Dec-03 03:24S 29°52' E 031°00'0 0.0
2014-Dec-03 02:25S 29°52' E 031°00'0 0.0
2014-Dec-03 01:33S 29°52' E 031°00'0 0.0
2014-Dec-03 00:33S 29°52' E 031°00'0 0.0
2014-Dec-02 23:33S 29°52' E 031°00'0 0.0
2014-Dec-02 22:33S 29°52' E 031°00'0 0.0
2014-Dec-02 21:33S 29°52' E 031°00'0 0.0
2014-Dec-02 20:33S 29°52' E 031°00'0 0.0
2014-Dec-02 19:33S 29°52' E 031°00'0 0.0
2014-Dec-02 18:33S 29°52' E 031°00'0 0.0
2014-Dec-02 17:33S 29°52' E 031°00'0 0.0
2014-Dec-02 16:33S 29°52' E 031°00'0 0.0
2014-Dec-02 15:33S 29°52' E 031°00'0 0.0
2014-Dec-02 14:33S 29°52' E 031°00'0 0.0
2014-Dec-02 13:33S 29°52' E 031°00'0 0.0
2014-Dec-02 12:33S 29°52' E 031°00'0 0.0
2014-Dec-02 11:33S 29°52' E 031°00'0 0.0
2014-Dec-02 10:33S 29°52' E 031°00'0 0.0
2014-Dec-02 09:33S 29°52' E 031°00'0 0.0
2014-Dec-02 08:33S 29°52' E 031°00'0 0.0
2014-Dec-02 07:33S 29°52' E 031°00'0 0.0
2014-Dec-02 06:33S 29°52' E 031°00'0 0.0
2014-Dec-02 05:33S 29°52' E 031°00'0 0.0
2014-Dec-02 04:33S 29°52' E 031°00'0 0.0
2014-Dec-02 03:33S 29°52' E 031°00'0 0.0
2014-Dec-02 02:33S 29°52' E 031°00'0 0.0
2014-Dec-02 01:33S 29°52' E 031°00'0 0.0
2014-Dec-02 00:33S 29°52' E 031°00'0 0.0
2014-Dec-01 23:33S 29°52' E 031°00'0 0.0
2014-Dec-01 22:25S 29°52' E 031°00'0 0.0
2014-Dec-01 21:33S 29°52' E 031°00'0 0.0
2014-Dec-01 20:33S 29°52' E 031°00'0 0.0
2014-Dec-01 19:33S 29°52' E 031°00'0 0.0
2014-Dec-01 18:33S 29°52' E 031°00'0 0.0
2014-Dec-01 17:33S 29°52' E 031°00'0 0.0
2014-Dec-01 16:33S 29°52' E 031°00'0 0.0
2014-Dec-01 15:33S 29°52' E 031°00'0 0.0
2014-Dec-01 14:33S 29°52' E 031°00'  
Track history (hours):
 
Tides and Currents Weather Stations Pressure Air Temp Water Temp Dewpoint Dewpoint Depression Visibility Wind Speed Wind Dir Waves Ship Positions

Filia Joy

Last reported at 2014-Dec-11 14:11 UTC. Time now 2014-Dec-20 17:55 UTC.
Position S 28°38' E 032°37'.
Warning: this ship's position is 9 days out of date.

Length 190 m; draft 6.5 m.

Type: Ship. MMSI: 371999000.

Date/timePositionNaut miles runAvg speedWind from/ knotsBaromVisibWave heightAir tempDewpointWater temp
2014-Dec-11 14:11S 28°38' E 032°37'31 8.5
2014-Dec-11 10:31S 28°49' E 032°03'  
2014-Dec-07 03:33S 29°39' E 031°40'5 4.7
2014-Dec-07 02:33S 29°42' E 031°37'0 0.4
2014-Dec-07 01:32S 29°42' E 031°37'0 0.3
2014-Dec-07 00:33S 29°42' E 031°38'0 0.2
2014-Dec-06 23:33S 29°42' E 031°38'6 6.0
2014-Dec-06 22:33S 29°46' E 031°32'7 7.5
2014-Dec-06 21:33S 29°49' E 031°24'8 8.2
2014-Dec-06 20:33S 29°50' E 031°15'7 7.1
2014-Dec-06 19:33S 29°51' E 031°07'5 5.3
2014-Dec-06 18:33S 29°52' E 031°01'0 0.1
2014-Dec-06 16:04S 29°52' E 031°00'0 0.0
2014-Dec-06 15:33S 29°52' E 031°00'0 0.0
2014-Dec-06 12:11S 29°52' E 031°00'0 0.0
2014-Dec-06 11:33S 29°52' E 031°00'0 0.0
2014-Dec-06 10:33S 29°52' E 031°00'0 0.0
2014-Dec-06 09:33S 29°52' E 031°00'0 0.0
2014-Dec-06 08:33S 29°52' E 031°00'0 0.0
2014-Dec-06 07:33S 29°52' E 031°00'0 0.0
2014-Dec-06 06:33S 29°52' E 031°00'0 0.0
2014-Dec-06 05:33S 29°52' E 031°00'0 0.0
2014-Dec-06 04:33S 29°52' E 031°00'0 0.0
2014-Dec-06 03:33S 29°52' E 031°00'0 0.0
2014-Dec-06 02:33S 29°52' E 031°00'0 0.0
2014-Dec-06 01:33S 29°52' E 031°00'0 0.0
2014-Dec-06 00:33S 29°52' E 031°00'0 0.0
2014-Dec-05 23:33S 29°52' E 031°00'0 0.0
2014-Dec-05 22:33S 29°52' E 031°00'0 0.0
2014-Dec-05 21:33S 29°52' E 031°00'0 0.0
2014-Dec-05 20:33S 29°52' E 031°00'0 0.0
2014-Dec-05 19:33S 29°52' E 031°00'0 0.0
2014-Dec-05 18:33S 29°52' E 031°00'0 0.0
2014-Dec-05 17:33S 29°52' E 031°00'0 0.0
2014-Dec-05 16:33S 29°52' E 031°00'0 0.0
2014-Dec-05 15:33S 29°52' E 031°00'0 0.0
2014-Dec-05 14:33S 29°52' E 031°00'0 0.0
2014-Dec-05 12:07S 29°52' E 031°00'0 0.0
2014-Dec-05 11:33S 29°52' E 031°00'0 0.0
2014-Dec-05 10:33S 29°52' E 031°00'0 0.0
2014-Dec-05 09:33S 29°52' E 031°00'0 0.0
2014-Dec-05 08:33S 29°52' E 031°00'0 0.0
2014-Dec-05 07:33S 29°52' E 031°00'0 0.0
2014-Dec-05 06:33S 29°52' E 031°00'0 0.0
2014-Dec-05 05:33S 29°52' E 031°00'0 0.0
2014-Dec-05 04:33S 29°52' E 031°00'0 0.0
2014-Dec-05 03:33S 29°52' E 031°00'0 0.0
2014-Dec-05 02:33S 29°52' E 031°00'0 0.0
2014-Dec-05 01:33S 29°52' E 031°00'0 0.0
2014-Dec-05 00:33S 29°52' E 031°00'0 0.0
2014-Dec-04 23:33S 29°52' E 031°00'0 0.0
2014-Dec-04 22:33S 29°52' E 031°00'0 0.0
2014-Dec-04 21:33S 29°52' E 031°00'0 0.0
2014-Dec-04 20:33S 29°52' E 031°00'0 0.0
2014-Dec-04 19:33S 29°52' E 031°00'0 0.0
2014-Dec-04 18:33S 29°52' E 031°00'0 0.0
2014-Dec-04 17:33S 29°52' E 031°00'0 0.0
2014-Dec-04 16:33S 29°52' E 031°00'0 0.0
2014-Dec-04 15:33S 29°52' E 031°00'0 0.0
2014-Dec-04 14:33S 29°52' E 031°00'0 0.0
2014-Dec-04 13:33S 29°52' E 031°00'0 0.0
2014-Dec-04 12:33S 29°52' E 031°00'0 0.0
2014-Dec-04 11:33S 29°52' E 031°00'0 0.0
2014-Dec-04 10:33S 29°52' E 031°00'0 0.0
2014-Dec-04 09:33S 29°52' E 031°00'0 0.0
2014-Dec-04 08:33S 29°52' E 031°00'0 0.0
2014-Dec-04 07:33S 29°52' E 031°00'0 0.0
2014-Dec-04 06:33S 29°52' E 031°00'0 0.0
2014-Dec-04 05:33S 29°52' E 031°00'0 0.0
2014-Dec-04 04:33S 29°52' E 031°00'0 0.0
2014-Dec-04 03:33S 29°52' E 031°00'0 0.0
2014-Dec-04 02:33S 29°52' E 031°00'0 0.0
2014-Dec-04 01:33S 29°52' E 031°00'0 0.0
2014-Dec-04 00:33S 29°52' E 031°00'0 0.0
2014-Dec-03 23:33S 29°52' E 031°00'0 0.0
2014-Dec-03 22:33S 29°52' E 031°00'0 0.0
2014-Dec-03 21:33S 29°52' E 031°00'0 0.0
2014-Dec-03 20:33S 29°52' E 031°00'0 0.0
2014-Dec-03 19:33S 29°52' E 031°00'0 0.0
2014-Dec-03 18:33S 29°52' E 031°00'0 0.0
2014-Dec-03 17:33S 29°52' E 031°00'0 0.0
2014-Dec-03 16:33S 29°52' E 031°00'0 0.0
2014-Dec-03 15:33S 29°52' E 031°00'0 0.0
2014-Dec-03 14:33S 29°52' E 031°00'0 0.0
2014-Dec-03 13:33S 29°52' E 031°00'0 0.0
2014-Dec-03 12:33S 29°52' E 031°00'0 0.0
2014-Dec-03 11:33S 29°52' E 031°00'0 0.0
2014-Dec-03 10:33S 29°52' E 031°00'0 0.0
2014-Dec-03 09:33S 29°52' E 031°00'0 0.0
2014-Dec-03 08:20S 29°52' E 031°00'0 0.0
2014-Dec-03 07:26S 29°52' E 031°00'0 0.0
2014-Dec-03 06:32S 29°52' E 031°00'0 0.0
2014-Dec-03 05:33S 29°52' E 031°00'0 0.0
2014-Dec-03 03:24S 29°52' E 031°00'0 0.0
2014-Dec-03 02:25S 29°52' E 031°00'0 0.0
2014-Dec-03 01:33S 29°52' E 031°00'0 0.0
2014-Dec-03 00:33S 29°52' E 031°00'0 0.0
2014-Dec-02 23:33S 29°52' E 031°00'0 0.0
2014-Dec-02 22:33S 29°52' E 031°00'0 0.0
2014-Dec-02 21:33S 29°52' E 031°00'0 0.0
2014-Dec-02 20:33S 29°52' E 031°00'0 0.0
2014-Dec-02 19:33S 29°52' E 031°00'0 0.0
2014-Dec-02 18:33S 29°52' E 031°00'0 0.0
2014-Dec-02 17:33S 29°52' E 031°00'0 0.0
2014-Dec-02 16:33S 29°52' E 031°00'0 0.0
2014-Dec-02 15:33S 29°52' E 031°00'0 0.0
2014-Dec-02 14:33S 29°52' E 031°00'0 0.0
2014-Dec-02 13:33S 29°52' E 031°00'0 0.0
2014-Dec-02 12:33S 29°52' E 031°00'0 0.0
2014-Dec-02 11:33S 29°52' E 031°00'0 0.0
2014-Dec-02 10:33S 29°52' E 031°00'0 0.0
2014-Dec-02 09:33S 29°52' E 031°00'0 0.0
2014-Dec-02 08:33S 29°52' E 031°00'0 0.0
2014-Dec-02 07:33S 29°52' E 031°00'0 0.0
2014-Dec-02 06:33S 29°52' E 031°00'0 0.0
2014-Dec-02 05:33S 29°52' E 031°00'0 0.0
2014-Dec-02 04:33S 29°52' E 031°00'0 0.0
2014-Dec-02 03:33S 29°52' E 031°00'0 0.0
2014-Dec-02 02:33S 29°52' E 031°00'0 0.0
2014-Dec-02 01:33S 29°52' E 031°00'0 0.0
2014-Dec-02 00:33S 29°52' E 031°00'0 0.0
2014-Dec-01 23:33S 29°52' E 031°00'0 0.0
2014-Dec-01 22:25S 29°52' E 031°00'0 0.0
2014-Dec-01 21:33S 29°52' E 031°00'0 0.0
2014-Dec-01 20:33S 29°52' E 031°00'0 0.0
2014-Dec-01 19:33S 29°52' E 031°00'0 0.0
2014-Dec-01 18:33S 29°52' E 031°00'0 0.0
2014-Dec-01 17:33S 29°52' E 031°00'0 0.0
2014-Dec-01 16:33S 29°52' E 031°00'0 0.0
2014-Dec-01 15:33S 29°52' E 031°00'0 0.0
2014-Dec-01 14:33S 29°52' E 031°00'  

Dump ship's entire track history